Tuesday, January 15, 2019, 11:48 PM GMT
Back to Local

CWQH, Lennoxville

Location: , , Canada Lat: 45.367
Local Time: 11:48 PM GMT (23:48 GMT) Lon: -71.817
Time Zone: GMT Elev: 593 ft

Show me the last for .
Show Coded

Time T Td Feel RH Dir Speed Gust Alt SLP Vis Weather Sky Remarks
2019-01-15 23:00 21 18 - 87 120° 1 - - - 0 None
2019-01-15 22:00 21 18 - 85 - Calm - - - 0 None
2019-01-15 21:00 22 17 - 83 - Calm - - - 0 None
2019-01-15 20:00 22 17 - 81 90° 1 - - - 0 None
2019-01-15 19:00 21 16 - 79 20° 1 - - - 0 None
2019-01-15 18:00 21 16 - 79 - Calm - - - 0 None
2019-01-15 17:00 19 15 - 84 - Calm - - - 0 None
2019-01-15 16:00 17 14 - 85 210° 1 - - - 0 None
2019-01-15 15:00 15 11 - 84 170° 1 - - - 0 None
2019-01-15 14:00 13 10 - 85 - Calm - - - 0 None
2019-01-15 13:00 12 9 - 87 - Calm - - - 0 None
2019-01-15 12:00 11 8 - 88 200° 1 - - - 0 None
2019-01-15 11:00 11 8 - 87 50° 1 - - - 0 None
2019-01-15 10:00 10 7 - 86 - Calm - - - 0 None
2019-01-15 09:00 11 6 - 79 - Calm - - - 0 None
2019-01-15 08:00 9 5 - 84 80° 1 - - - 0 None
2019-01-15 07:00 8 5 2 86 60° 3 - - - 0 None
2019-01-15 06:00 10 5 - 80 40° 2 - - - 0 None
2019-01-15 05:00 6 3 - 87 60° 1 - - - 0 None
2019-01-15 04:00 3 0 - 86 - Calm - - - 0 None
2019-01-15 03:00 4 -1 - 80 40° 1 - - - 0 None
2019-01-15 02:00 3 -1 - 85 10° 2 - - - 0 None
2019-01-15 01:00 4 2 - 87 150° 1 - - - 0 None
2019-01-15 00:00 6 2 -1 84 90° 3 - - - 0 None

Support USWX by starting your Amazon purchase here.